sensor_id;sensor_type;location;lat;lon;timestamp;P1;durP1;ratioP1;P2;durP2;ratioP2
14001;SDS011;7076;51.280;12.584;2022-08-01T00:00:43;2.88;;;1.55;;
14001;SDS011;7076;51.280;12.584;2022-08-01T00:05:47;3.72;;;1.40;;
14001;SDS011;7076;51.280;12.584;2022-08-01T00:10:50;1.60;;;1.50;;
14001;SDS011;7076;51.280;12.584;2022-08-01T00:15:52;1.83;;;1.65;;
14001;SDS011;7076;51.280;12.584;2022-08-01T00:20:57;2.08;;;1.35;;
14001;SDS011;7076;51.280;12.584;2022-08-01T00:26:00;1.75;;;1.65;;
14001;SDS011;7076;51.280;12.584;2022-08-01T00:31:03;2.20;;;1.73;;
14001;SDS011;7076;51.280;12.584;2022-08-01T00:36:07;2.08;;;1.70;;
14001;SDS011;7076;51.280;12.584;2022-08-01T00:41:10;2.15;;;1.60;;
14001;SDS011;7076;51.280;12.584;2022-08-01T00:46:13;2.42;;;1.50;;
14001;SDS011;7076;51.280;12.584;2022-08-01T00:51:17;1.90;;;1.67;;
14001;SDS011;7076;51.280;12.584;2022-08-01T00:56:20;2.45;;;1.70;;
14001;SDS011;7076;51.280;12.584;2022-08-01T01:01:24;2.15;;;1.60;;
14001;SDS011;7076;51.280;12.584;2022-08-01T01:06:44;1.90;;;1.80;;
14001;SDS011;7076;51.280;12.584;2022-08-01T01:11:54;3.20;;;1.38;;
14001;SDS011;7076;51.280;12.584;2022-08-01T01:17:00;2.55;;;1.55;;
14001;SDS011;7076;51.280;12.584;2022-08-01T01:22:13;2.40;;;1.60;;
14001;SDS011;7076;51.280;12.584;2022-08-01T01:27:24;1.65;;;1.55;;
14001;SDS011;7076;51.280;12.584;2022-08-01T01:32:33;2.25;;;1.58;;
14001;SDS011;7076;51.280;12.584;2022-08-01T01:37:38;3.30;;;2.15;;
14001;SDS011;7076;51.280;12.584;2022-08-01T01:42:42;3.60;;;1.85;;
14001;SDS011;7076;51.280;12.584;2022-08-01T01:47:47;2.58;;;1.63;;
14001;SDS011;7076;51.280;12.584;2022-08-01T01:52:50;2.15;;;1.98;;
14001;SDS011;7076;51.280;12.584;2022-08-01T01:57:53;3.10;;;2.35;;
14001;SDS011;7076;51.280;12.584;2022-08-01T02:02:59;2.13;;;1.83;;
14001;SDS011;7076;51.280;12.584;2022-08-01T02:08:04;2.90;;;1.88;;
14001;SDS011;7076;51.280;12.584;2022-08-01T02:13:07;2.45;;;2.03;;
14001;SDS011;7076;51.280;12.584;2022-08-01T02:18:13;3.05;;;2.20;;
14001;SDS011;7076;51.280;12.584;2022-08-01T02:23:19;3.47;;;2.17;;
14001;SDS011;7076;51.280;12.584;2022-08-01T02:28:24;3.53;;;2.45;;
14001;SDS011;7076;51.280;12.584;2022-08-01T02:33:33;3.17;;;2.17;;
14001;SDS011;7076;51.280;12.584;2022-08-01T02:38:41;2.50;;;2.30;;
14001;SDS011;7076;51.280;12.584;2022-08-01T02:43:46;2.45;;;2.25;;
14001;SDS011;7076;51.280;12.584;2022-08-01T02:48:55;3.47;;;2.03;;
14001;SDS011;7076;51.280;12.584;2022-08-01T02:53:59;2.20;;;2.00;;
14001;SDS011;7076;51.280;12.584;2022-08-01T02:59:05;2.65;;;2.28;;
14001;SDS011;7076;51.280;12.584;2022-08-01T03:04:11;2.28;;;2.08;;
14001;SDS011;7076;51.280;12.584;2022-08-01T03:09:15;3.10;;;2.28;;
14001;SDS011;7076;51.280;12.584;2022-08-01T03:14:18;2.00;;;1.85;;
14001;SDS011;7076;51.280;12.584;2022-08-01T03:19:25;2.70;;;2.10;;
14001;SDS011;7076;51.280;12.584;2022-08-01T03:24:30;1.65;;;1.52;;
14001;SDS011;7076;51.280;12.584;2022-08-01T03:29:33;2.00;;;1.80;;
14001;SDS011;7076;51.280;12.584;2022-08-01T03:34:38;1.60;;;1.50;;
14001;SDS011;7076;51.280;12.584;2022-08-01T03:39:44;2.33;;;2.00;;
14001;SDS011;7076;51.280;12.584;2022-08-01T03:45:06;2.40;;;1.65;;
14001;SDS011;7076;51.280;12.584;2022-08-01T03:50:15;2.65;;;2.08;;
14001;SDS011;7076;51.280;12.584;2022-08-01T03:55:19;2.03;;;1.67;;
14001;SDS011;7076;51.280;12.584;2022-08-01T04:00:23;2.08;;;1.98;;
14001;SDS011;7076;51.280;12.584;2022-08-01T04:05:28;1.83;;;1.40;;
14001;SDS011;7076;51.280;12.584;2022-08-01T04:10:30;1.80;;;1.70;;
14001;SDS011;7076;51.280;12.584;2022-08-01T04:15:34;1.85;;;1.60;;
14001;SDS011;7076;51.280;12.584;2022-08-01T04:20:38;1.50;;;1.40;;
14001;SDS011;7076;51.280;12.584;2022-08-01T04:25:41;3.25;;;1.35;;
14001;SDS011;7076;51.280;12.584;2022-08-01T04:30:45;1.70;;;1.40;;
14001;SDS011;7076;51.280;12.584;2022-08-01T04:35:50;1.40;;;1.30;;
14001;SDS011;7076;51.280;12.584;2022-08-01T04:41:05;1.48;;;1.20;;
14001;SDS011;7076;51.280;12.584;2022-08-01T04:46:10;3.33;;;1.70;;
14001;SDS011;7076;51.280;12.584;2022-08-01T04:51:14;2.55;;;1.60;;
14001;SDS011;7076;51.280;12.584;2022-08-01T04:56:18;1.58;;;1.48;;
14001;SDS011;7076;51.280;12.584;2022-08-01T05:01:22;1.70;;;1.60;;
14001;SDS011;7076;51.280;12.584;2022-08-01T05:06:26;3.70;;;2.53;;
14001;SDS011;7076;51.280;12.584;2022-08-01T05:11:28;1.60;;;1.33;;
14001;SDS011;7076;51.280;12.584;2022-08-01T05:16:32;1.90;;;1.50;;
14001;SDS011;7076;51.280;12.584;2022-08-01T05:21:36;1.63;;;1.45;;
14001;SDS011;7076;51.280;12.584;2022-08-01T05:26:39;1.77;;;1.50;;
14001;SDS011;7076;51.280;12.584;2022-08-01T05:31:42;2.63;;;1.90;;
14001;SDS011;7076;51.280;12.584;2022-08-01T05:36:47;4.65;;;2.05;;
14001;SDS011;7076;51.280;12.584;2022-08-01T05:41:56;2.38;;;1.80;;
14001;SDS011;7076;51.280;12.584;2022-08-01T05:46:59;2.30;;;2.10;;
14001;SDS011;7076;51.280;12.584;2022-08-01T05:52:05;2.28;;;2.00;;
14001;SDS011;7076;51.280;12.584;2022-08-01T05:57:09;1.98;;;1.88;;
14001;SDS011;7076;51.280;12.584;2022-08-01T06:02:12;2.00;;;1.73;;
14001;SDS011;7076;51.280;12.584;2022-08-01T06:07:16;1.92;;;1.80;;
14001;SDS011;7076;51.280;12.584;2022-08-01T06:12:19;1.88;;;1.70;;
14001;SDS011;7076;51.280;12.584;2022-08-01T06:17:23;2.15;;;1.90;;
14001;SDS011;7076;51.280;12.584;2022-08-01T06:22:27;1.95;;;1.40;;
14001;SDS011;7076;51.280;12.584;2022-08-01T06:27:33;1.55;;;1.45;;
14001;SDS011;7076;51.280;12.584;2022-08-01T06:32:36;2.38;;;1.60;;
14001;SDS011;7076;51.280;12.584;2022-08-01T06:37:40;2.92;;;1.38;;
14001;SDS011;7076;51.280;12.584;2022-08-01T06:42:43;2.03;;;1.25;;
14001;SDS011;7076;51.280;12.584;2022-08-01T06:47:47;1.45;;;1.35;;
14001;SDS011;7076;51.280;12.584;2022-08-01T06:52:52;1.23;;;1.13;;
14001;SDS011;7076;51.280;12.584;2022-08-01T06:57:55;1.88;;;1.27;;
14001;SDS011;7076;51.280;12.584;2022-08-01T07:02:58;1.33;;;1.23;;
14001;SDS011;7076;51.280;12.584;2022-08-01T07:08:03;1.33;;;1.23;;
14001;SDS011;7076;51.280;12.584;2022-08-01T07:13:06;1.42;;;1.10;;
14001;SDS011;7076;51.280;12.584;2022-08-01T07:18:09;1.30;;;1.20;;
14001;SDS011;7076;51.280;12.584;2022-08-01T07:23:13;0.90;;;0.90;;
14001;SDS011;7076;51.280;12.584;2022-08-01T07:28:16;1.17;;;1.05;;
14001;SDS011;7076;51.280;12.584;2022-08-01T07:33:18;0.88;;;0.82;;
14001;SDS011;7076;51.280;12.584;2022-08-01T07:38:22;1.25;;;1.00;;
14001;SDS011;7076;51.280;12.584;2022-08-01T07:43:25;2.33;;;1.15;;
14001;SDS011;7076;51.280;12.584;2022-08-01T07:48:28;1.17;;;1.17;;
14001;SDS011;7076;51.280;12.584;2022-08-01T07:53:32;0.88;;;0.88;;
14001;SDS011;7076;51.280;12.584;2022-08-01T07:58:35;1.27;;;1.27;;
14001;SDS011;7076;51.280;12.584;2022-08-01T08:03:38;1.40;;;1.30;;
14001;SDS011;7076;51.280;12.584;2022-08-01T08:08:42;1.10;;;1.00;;
14001;SDS011;7076;51.280;12.584;2022-08-01T08:13:45;0.88;;;0.88;;
14001;SDS011;7076;51.280;12.584;2022-08-01T08:18:48;1.23;;;0.50;;
14001;SDS011;7076;51.280;12.584;2022-08-01T08:23:52;1.95;;;0.40;;
14001;SDS011;7076;51.280;12.584;2022-08-01T08:29:13;1.50;;;0.50;;
14001;SDS011;7076;51.280;12.584;2022-08-01T08:34:16;0.47;;;0.43;;
14001;SDS011;7076;51.280;12.584;2022-08-01T08:39:20;0.93;;;0.50;;
14001;SDS011;7076;51.280;12.584;2022-08-01T08:44:23;0.85;;;0.40;;
14001;SDS011;7076;51.280;12.584;2022-08-01T08:49:26;0.75;;;0.60;;
14001;SDS011;7076;51.280;12.584;2022-08-01T08:54:38;0.90;;;0.77;;
14001;SDS011;7076;51.280;12.584;2022-08-01T08:59:43;0.60;;;0.45;;
14001;SDS011;7076;51.280;12.584;2022-08-01T09:04:46;3.50;;;1.15;;
14001;SDS011;7076;51.280;12.584;2022-08-01T09:09:52;0.75;;;0.52;;
14001;SDS011;7076;51.280;12.584;2022-08-01T09:14:54;1.05;;;0.68;;
14001;SDS011;7076;51.280;12.584;2022-08-01T09:19:57;0.68;;;0.68;;
14001;SDS011;7076;51.280;12.584;2022-08-01T09:25:04;1.13;;;0.73;;
14001;SDS011;7076;51.280;12.584;2022-08-01T09:30:09;0.85;;;0.70;;
14001;SDS011;7076;51.280;12.584;2022-08-01T09:35:23;0.50;;;0.50;;
14001;SDS011;7076;51.280;12.584;2022-08-01T09:40:44;0.50;;;0.50;;
14001;SDS011;7076;51.280;12.584;2022-08-01T09:45:51;0.52;;;0.52;;
14001;SDS011;7076;51.280;12.584;2022-08-01T09:50:55;0.60;;;0.50;;
14001;SDS011;7076;51.280;12.584;2022-08-01T09:56:09;0.30;;;0.30;;
14001;SDS011;7076;51.280;12.584;2022-08-01T10:01:13;0.40;;;0.40;;
14001;SDS011;7076;51.280;12.584;2022-08-01T10:06:19;0.20;;;0.20;;
14001;SDS011;7076;51.280;12.584;2022-08-01T10:11:26;0.20;;;0.20;;
14001;SDS011;7076;51.280;12.584;2022-08-01T10:16:38;0.15;;;0.15;;
14001;SDS011;7076;51.280;12.584;2022-08-01T10:21:42;0.55;;;0.32;;
14001;SDS011;7076;51.280;12.584;2022-08-01T10:27:02;0.60;;;0.60;;
14001;SDS011;7076;51.280;12.584;2022-08-01T10:32:09;0.52;;;0.52;;
14001;SDS011;7076;51.280;12.584;2022-08-01T10:37:12;1.30;;;0.50;;
14001;SDS011;7076;51.280;12.584;2022-08-01T10:42:17;1.00;;;0.30;;
14001;SDS011;7076;51.280;12.584;2022-08-01T10:47:21;0.40;;;0.38;;
14001;SDS011;7076;51.280;12.584;2022-08-01T10:58:22;0.75;;;0.40;;
14001;SDS011;7076;51.280;12.584;2022-08-01T11:03:32;0.45;;;0.32;;
14001;SDS011;7076;51.280;12.584;2022-08-01T11:08:56;0.73;;;0.40;;
14001;SDS011;7076;51.280;12.584;2022-08-01T11:14:03;1.65;;;0.52;;
14001;SDS011;7076;51.280;12.584;2022-08-01T11:19:09;0.77;;;0.52;;
14001;SDS011;7076;51.280;12.584;2022-08-01T11:24:12;3.08;;;0.52;;
14001;SDS011;7076;51.280;12.584;2022-08-01T11:29:18;0.60;;;0.60;;
14001;SDS011;7076;51.280;12.584;2022-08-01T11:34:36;0.85;;;0.82;;
14001;SDS011;7076;51.280;12.584;2022-08-01T11:45:19;1.42;;;1.30;;
14001;SDS011;7076;51.280;12.584;2022-08-01T11:50:31;3.83;;;0.90;;
14001;SDS011;7076;51.280;12.584;2022-08-01T11:55:35;0.85;;;0.85;;
14001;SDS011;7076;51.280;12.584;2022-08-01T12:00:39;0.90;;;0.90;;
14001;SDS011;7076;51.280;12.584;2022-08-01T12:05:47;1.40;;;0.88;;
14001;SDS011;7076;51.280;12.584;2022-08-01T12:10:50;1.33;;;1.23;;
14001;SDS011;7076;51.280;12.584;2022-08-01T12:16:08;1.08;;;1.00;;
14001;SDS011;7076;51.280;12.584;2022-08-01T12:21:11;1.10;;;1.00;;
14001;SDS011;7076;51.280;12.584;2022-08-01T12:26:14;1.42;;;1.33;;
14001;SDS011;7076;51.280;12.584;2022-08-01T12:31:33;1.52;;;1.42;;
14001;SDS011;7076;51.280;12.584;2022-08-01T12:36:37;1.70;;;1.20;;
14001;SDS011;7076;51.280;12.584;2022-08-01T12:41:39;1.10;;;0.65;;
14001;SDS011;7076;51.280;12.584;2022-08-01T12:46:50;2.60;;;0.90;;
14001;SDS011;7076;51.280;12.584;2022-08-01T12:51:53;0.90;;;0.90;;
14001;SDS011;7076;51.280;12.584;2022-08-01T12:56:58;1.00;;;1.00;;
14001;SDS011;7076;51.280;12.584;2022-08-01T13:02:08;1.10;;;1.10;;
14001;SDS011;7076;51.280;12.584;2022-08-01T13:07:12;1.20;;;1.20;;
14001;SDS011;7076;51.280;12.584;2022-08-01T13:12:15;1.00;;;1.00;;
14001;SDS011;7076;51.280;12.584;2022-08-01T13:17:30;1.27;;;1.17;;
14001;SDS011;7076;51.280;12.584;2022-08-01T13:22:33;0.80;;;0.80;;
14001;SDS011;7076;51.280;12.584;2022-08-01T13:27:36;0.68;;;0.60;;
14001;SDS011;7076;51.280;12.584;2022-08-01T13:32:58;0.70;;;0.70;;
14001;SDS011;7076;51.280;12.584;2022-08-01T13:38:01;1.00;;;0.77;;
14001;SDS011;7076;51.280;12.584;2022-08-01T13:43:04;0.80;;;0.80;;
14001;SDS011;7076;51.280;12.584;2022-08-01T13:48:08;0.77;;;0.60;;
14001;SDS011;7076;51.280;12.584;2022-08-01T13:53:19;0.55;;;0.55;;
14001;SDS011;7076;51.280;12.584;2022-08-01T13:58:22;0.60;;;0.50;;
14001;SDS011;7076;51.280;12.584;2022-08-01T14:03:27;0.73;;;0.73;;
14001;SDS011;7076;51.280;12.584;2022-08-01T14:08:34;0.60;;;0.60;;
14001;SDS011;7076;51.280;12.584;2022-08-01T14:13:37;0.70;;;0.70;;
14001;SDS011;7076;51.280;12.584;2022-08-01T14:18:48;1.00;;;0.55;;
14001;SDS011;7076;51.280;12.584;2022-08-01T14:23:52;0.65;;;0.65;;
14001;SDS011;7076;51.280;12.584;2022-08-01T14:28:55;1.10;;;0.80;;
14001;SDS011;7076;51.280;12.584;2022-08-01T14:33:59;0.73;;;0.50;;
14001;SDS011;7076;51.280;12.584;2022-08-01T14:39:02;0.60;;;0.60;;
14001;SDS011;7076;51.280;12.584;2022-08-01T14:44:07;0.68;;;0.50;;
14001;SDS011;7076;51.280;12.584;2022-08-01T14:49:11;0.60;;;0.60;;
14001;SDS011;7076;51.280;12.584;2022-08-01T14:54:14;1.15;;;0.70;;
14001;SDS011;7076;51.280;12.584;2022-08-01T14:59:27;2.78;;;0.60;;
14001;SDS011;7076;51.280;12.584;2022-08-01T15:04:31;1.20;;;1.10;;
14001;SDS011;7076;51.280;12.584;2022-08-01T15:09:34;0.60;;;0.60;;
14001;SDS011;7076;51.280;12.584;2022-08-01T15:14:37;1.40;;;0.60;;
14001;SDS011;7076;51.280;12.584;2022-08-01T15:19:53;0.50;;;0.50;;
14001;SDS011;7076;51.280;12.584;2022-08-01T15:24:57;0.50;;;0.50;;
14001;SDS011;7076;51.280;12.584;2022-08-01T15:30:02;0.50;;;0.50;;
14001;SDS011;7076;51.280;12.584;2022-08-01T15:35:08;1.90;;;0.60;;
14001;SDS011;7076;51.280;12.584;2022-08-01T15:40:12;0.40;;;0.40;;
14001;SDS011;7076;51.280;12.584;2022-08-01T15:45:15;0.50;;;0.50;;
14001;SDS011;7076;51.280;12.584;2022-08-01T15:50:41;0.40;;;0.40;;
14001;SDS011;7076;51.280;12.584;2022-08-01T15:55:44;3.10;;;0.50;;
14001;SDS011;7076;51.280;12.584;2022-08-01T16:00:53;0.52;;;0.52;;
14001;SDS011;7076;51.280;12.584;2022-08-01T16:05:57;1.00;;;0.98;;
14001;SDS011;7076;51.280;12.584;2022-08-01T16:11:00;1.45;;;1.10;;
14001;SDS011;7076;51.280;12.584;2022-08-01T16:16:03;0.75;;;0.70;;
14001;SDS011;7076;51.280;12.584;2022-08-01T16:21:08;1.38;;;1.08;;
14001;SDS011;7076;51.280;12.584;2022-08-01T16:26:12;1.35;;;1.25;;
14001;SDS011;7076;51.280;12.584;2022-08-01T16:31:28;1.27;;;1.17;;
14001;SDS011;7076;51.280;12.584;2022-08-01T16:36:53;1.10;;;1.00;;
14001;SDS011;7076;51.280;12.584;2022-08-01T16:41:56;2.38;;;1.00;;
14001;SDS011;7076;51.280;12.584;2022-08-01T16:47:01;1.33;;;0.98;;
14001;SDS011;7076;51.280;12.584;2022-08-01T16:52:07;0.88;;;0.88;;
14001;SDS011;7076;51.280;12.584;2022-08-01T16:57:10;0.98;;;0.93;;
14001;SDS011;7076;51.280;12.584;2022-08-01T17:02:14;1.10;;;1.10;;
14001;SDS011;7076;51.280;12.584;2022-08-01T17:07:18;0.70;;;0.70;;
14001;SDS011;7076;51.280;12.584;2022-08-01T17:12:21;0.60;;;0.60;;
14001;SDS011;7076;51.280;12.584;2022-08-01T17:17:24;0.63;;;0.50;;
14001;SDS011;7076;51.280;12.584;2022-08-01T17:22:28;0.60;;;0.50;;
14001;SDS011;7076;51.280;12.584;2022-08-01T17:27:31;1.25;;;0.88;;
14001;SDS011;7076;51.280;12.584;2022-08-01T17:32:34;0.98;;;0.70;;
14001;SDS011;7076;51.280;12.584;2022-08-01T17:37:38;0.63;;;0.60;;
14001;SDS011;7076;51.280;12.584;2022-08-01T17:42:41;0.40;;;0.40;;
14001;SDS011;7076;51.280;12.584;2022-08-01T17:47:44;0.57;;;0.50;;
14001;SDS011;7076;51.280;12.584;2022-08-01T17:52:52;1.08;;;0.50;;
14001;SDS011;7076;51.280;12.584;2022-08-01T17:57:55;0.60;;;0.60;;
14001;SDS011;7076;51.280;12.584;2022-08-01T18:02:58;0.52;;;0.50;;
14001;SDS011;7076;51.280;12.584;2022-08-01T18:08:04;0.40;;;0.40;;
14001;SDS011;7076;51.280;12.584;2022-08-01T18:13:08;0.57;;;0.47;;
14001;SDS011;7076;51.280;12.584;2022-08-01T18:18:11;0.43;;;0.40;;
14001;SDS011;7076;51.280;12.584;2022-08-01T18:23:15;0.70;;;0.70;;
14001;SDS011;7076;51.280;12.584;2022-08-01T18:28:18;1.30;;;0.50;;
14001;SDS011;7076;51.280;12.584;2022-08-01T18:33:34;0.40;;;0.40;;
14001;SDS011;7076;51.280;12.584;2022-08-01T18:38:38;0.50;;;0.47;;
14001;SDS011;7076;51.280;12.584;2022-08-01T18:43:44;0.40;;;0.40;;
14001;SDS011;7076;51.280;12.584;2022-08-01T18:48:48;0.52;;;0.52;;
14001;SDS011;7076;51.280;12.584;2022-08-01T18:53:53;0.40;;;0.40;;
14001;SDS011;7076;51.280;12.584;2022-08-01T18:58:58;0.50;;;0.50;;
14001;SDS011;7076;51.280;12.584;2022-08-01T19:04:00;0.57;;;0.47;;
14001;SDS011;7076;51.280;12.584;2022-08-01T19:09:05;0.98;;;0.50;;
14001;SDS011;7076;51.280;12.584;2022-08-01T19:14:09;0.80;;;0.38;;
14001;SDS011;7076;51.280;12.584;2022-08-01T19:19:12;0.90;;;0.40;;
14001;SDS011;7076;51.280;12.584;2022-08-01T19:24:29;1.38;;;0.90;;
14001;SDS011;7076;51.280;12.584;2022-08-01T19:29:33;0.47;;;0.40;;
14001;SDS011;7076;51.280;12.584;2022-08-01T19:34:41;0.60;;;0.40;;
14001;SDS011;7076;51.280;12.584;2022-08-01T19:39:51;0.45;;;0.40;;
14001;SDS011;7076;51.280;12.584;2022-08-01T19:44:54;0.50;;;0.40;;
14001;SDS011;7076;51.280;12.584;2022-08-01T19:49:58;0.70;;;0.55;;
14001;SDS011;7076;51.280;12.584;2022-08-01T19:55:03;0.52;;;0.52;;
14001;SDS011;7076;51.280;12.584;2022-08-01T20:00:09;0.60;;;0.60;;
14001;SDS011;7076;51.280;12.584;2022-08-01T20:05:28;3.42;;;0.50;;
14001;SDS011;7076;51.280;12.584;2022-08-01T20:10:32;0.50;;;0.50;;
14001;SDS011;7076;51.280;12.584;2022-08-01T20:15:37;0.50;;;0.50;;
14001;SDS011;7076;51.280;12.584;2022-08-01T20:20:40;0.63;;;0.40;;
14001;SDS011;7076;51.280;12.584;2022-08-01T20:25:48;0.70;;;0.50;;
14001;SDS011;7076;51.280;12.584;2022-08-01T20:30:52;2.80;;;0.50;;
14001;SDS011;7076;51.280;12.584;2022-08-01T20:35:56;0.75;;;0.43;;
14001;SDS011;7076;51.280;12.584;2022-08-01T20:41:03;0.45;;;0.45;;
14001;SDS011;7076;51.280;12.584;2022-08-01T20:46:06;0.50;;;0.50;;
14001;SDS011;7076;51.280;12.584;2022-08-01T20:51:09;0.88;;;0.52;;
14001;SDS011;7076;51.280;12.584;2022-08-01T20:56:24;0.60;;;0.60;;
14001;SDS011;7076;51.280;12.584;2022-08-01T21:01:32;0.60;;;0.60;;
14001;SDS011;7076;51.280;12.584;2022-08-01T21:06:40;0.40;;;0.40;;
14001;SDS011;7076;51.280;12.584;2022-08-01T21:11:48;0.68;;;0.50;;
14001;SDS011;7076;51.280;12.584;2022-08-01T21:16:53;0.80;;;0.73;;
14001;SDS011;7076;51.280;12.584;2022-08-01T21:22:01;1.83;;;0.65;;
14001;SDS011;7076;51.280;12.584;2022-08-01T21:27:13;0.73;;;0.65;;
14001;SDS011;7076;51.280;12.584;2022-08-01T21:32:17;0.80;;;0.70;;
14001;SDS011;7076;51.280;12.584;2022-08-01T21:37:22;1.38;;;0.50;;
14001;SDS011;7076;51.280;12.584;2022-08-01T21:42:27;1.02;;;0.60;;
14001;SDS011;7076;51.280;12.584;2022-08-01T21:47:30;2.88;;;0.60;;
14001;SDS011;7076;51.280;12.584;2022-08-01T21:52:33;0.85;;;0.47;;
14001;SDS011;7076;51.280;12.584;2022-08-01T22:03:17;0.75;;;0.52;;
14001;SDS011;7076;51.280;12.584;2022-08-01T22:08:27;0.60;;;0.60;;
14001;SDS011;7076;51.280;12.584;2022-08-01T22:13:32;0.73;;;0.60;;
14001;SDS011;7076;51.280;12.584;2022-08-01T22:18:36;0.75;;;0.75;;
14001;SDS011;7076;51.280;12.584;2022-08-01T22:23:40;0.60;;;0.60;;
14001;SDS011;7076;51.280;12.584;2022-08-01T22:28:45;0.60;;;0.60;;
14001;SDS011;7076;51.280;12.584;2022-08-01T22:33:47;5.05;;;0.70;;
14001;SDS011;7076;51.280;12.584;2022-08-01T22:38:50;1.23;;;0.73;;
14001;SDS011;7076;51.280;12.584;2022-08-01T22:43:56;0.68;;;0.60;;
14001;SDS011;7076;51.280;12.584;2022-08-01T22:49:04;2.13;;;0.70;;
14001;SDS011;7076;51.280;12.584;2022-08-01T22:54:12;0.70;;;0.68;;
14001;SDS011;7076;51.280;12.584;2022-08-01T22:59:22;1.13;;;0.70;;
14001;SDS011;7076;51.280;12.584;2022-08-01T23:04:44;1.02;;;0.70;;
14001;SDS011;7076;51.280;12.584;2022-08-01T23:09:47;0.85;;;0.70;;
14001;SDS011;7076;51.280;12.584;2022-08-01T23:14:57;0.70;;;0.70;;
14001;SDS011;7076;51.280;12.584;2022-08-01T23:20:01;1.10;;;0.70;;
14001;SDS011;7076;51.280;12.584;2022-08-01T23:25:07;0.85;;;0.80;;
14001;SDS011;7076;51.280;12.584;2022-08-01T23:30:12;1.00;;;0.80;;
14001;SDS011;7076;51.280;12.584;2022-08-01T23:35:15;0.75;;;0.73;;
14001;SDS011;7076;51.280;12.584;2022-08-01T23:40:18;1.05;;;0.90;;
14001;SDS011;7076;51.280;12.584;2022-08-01T23:45:27;0.70;;;0.70;;
14001;SDS011;7076;51.280;12.584;2022-08-01T23:50:50;1.70;;;0.93;;
14001;SDS011;7076;51.280;12.584;2022-08-01T23:55:53;1.35;;;0.75;;
